sensor_id;sensor_type;location;lat;lon;timestamp;temperature;humidity
10175;DHT22;18221;38.704;0.152;2023-05-09T00:04:57;18.70;99.90
10175;DHT22;18221;38.704;0.152;2023-05-09T00:07:26;18.70;99.90
10175;DHT22;18221;38.704;0.152;2023-05-09T00:09:54;18.70;99.90
10175;DHT22;18221;38.704;0.152;2023-05-09T00:12:23;18.70;99.90
10175;DHT22;18221;38.704;0.152;2023-05-09T00:14:53;18.70;99.90
10175;DHT22;18221;38.704;0.152;2023-05-09T00:17:22;19.80;99.90
10175;DHT22;18221;38.704;0.152;2023-05-09T00:19:52;18.60;99.90
10175;DHT22;18221;38.704;0.152;2023-05-09T00:22:22;18.60;99.90
10175;DHT22;18221;38.704;0.152;2023-05-09T00:24:51;18.60;99.90
10175;DHT22;18221;38.704;0.152;2023-05-09T00:27:19;18.60;99.90
10175;DHT22;18221;38.704;0.152;2023-05-09T00:29:48;18.60;99.90
10175;DHT22;18221;38.704;0.152;2023-05-09T00:32:16;18.60;99.90
10175;DHT22;18221;38.704;0.152;2023-05-09T00:34:45;18.60;99.90
10175;DHT22;18221;38.704;0.152;2023-05-09T00:37:13;18.70;99.90
10175;DHT22;18221;38.704;0.152;2023-05-09T00:39:46;18.70;99.90
10175;DHT22;18221;38.704;0.152;2023-05-09T00:42:14;18.70;99.90
10175;DHT22;18221;38.704;0.152;2023-05-09T00:44:43;18.60;99.90
10175;DHT22;18221;38.704;0.152;2023-05-09T00:47:12;18.60;99.90
10175;DHT22;18221;38.704;0.152;2023-05-09T00:49:40;18.60;99.90
10175;DHT22;18221;38.704;0.152;2023-05-09T00:52:09;18.60;99.90
10175;DHT22;18221;38.704;0.152;2023-05-09T00:54:38;18.50;99.90
10175;DHT22;18221;38.704;0.152;2023-05-09T00:57:08;18.50;99.90
10175;DHT22;18221;38.704;0.152;2023-05-09T00:59:37;18.50;99.90
10175;DHT22;18221;38.704;0.152;2023-05-09T01:02:06;18.50;99.90
10175;DHT22;18221;38.704;0.152;2023-05-09T01:04:34;18.50;99.90
10175;DHT22;18221;38.704;0.152;2023-05-09T01:07:05;18.50;99.90
10175;DHT22;18221;38.704;0.152;2023-05-09T01:09:45;18.50;99.90
10175;DHT22;18221;38.704;0.152;2023-05-09T01:12:31;18.50;99.90
10175;DHT22;18221;38.704;0.152;2023-05-09T01:15:12;18.50;99.90
10175;DHT22;18221;38.704;0.152;2023-05-09T01:17:51;18.50;99.90
10175;DHT22;18221;38.704;0.152;2023-05-09T01:20:29;18.50;99.90
10175;DHT22;18221;38.704;0.152;2023-05-09T01:23:16;18.50;99.90
10175;DHT22;18221;38.704;0.152;2023-05-09T01:26:15;18.60;99.90
10175;DHT22;18221;38.704;0.152;2023-05-09T01:29:11;18.70;99.90
10175;DHT22;18221;38.704;0.152;2023-05-09T01:31:57;18.60;99.90
10175;DHT22;18221;38.704;0.152;2023-05-09T01:34:30;18.80;99.90
10175;DHT22;18221;38.704;0.152;2023-05-09T01:37:03;18.60;99.90
10175;DHT22;18221;38.704;0.152;2023-05-09T01:39:34;18.60;99.90
10175;DHT22;18221;38.704;0.152;2023-05-09T01:42:07;18.60;99.90
10175;DHT22;18221;38.704;0.152;2023-05-09T01:44:41;18.60;99.90
10175;DHT22;18221;38.704;0.152;2023-05-09T01:47:11;18.60;99.90
10175;DHT22;18221;38.704;0.152;2023-05-09T01:49:43;18.70;99.90
10175;DHT22;18221;38.704;0.152;2023-05-09T01:52:15;18.60;99.90
10175;DHT22;18221;38.704;0.152;2023-05-09T01:54:47;18.70;99.90
10175;DHT22;18221;38.704;0.152;2023-05-09T01:57:18;18.70;99.90
10175;DHT22;18221;38.704;0.152;2023-05-09T01:59:50;18.70;99.90
10175;DHT22;18221;38.704;0.152;2023-05-09T02:02:20;18.70;99.90
10175;DHT22;18221;38.704;0.152;2023-05-09T02:04:50;18.70;99.90
10175;DHT22;18221;38.704;0.152;2023-05-09T02:07:20;18.70;99.90
10175;DHT22;18221;38.704;0.152;2023-05-09T02:09:51;18.70;99.90
10175;DHT22;18221;38.704;0.152;2023-05-09T02:12:22;18.70;99.90
10175;DHT22;18221;38.704;0.152;2023-05-09T02:14:52;18.70;99.90
10175;DHT22;18221;38.704;0.152;2023-05-09T02:17:21;18.70;99.90
10175;DHT22;18221;38.704;0.152;2023-05-09T02:19:50;18.80;99.90
10175;DHT22;18221;38.704;0.152;2023-05-09T02:22:18;18.80;99.90
10175;DHT22;18221;38.704;0.152;2023-05-09T02:24:47;18.80;99.90
10175;DHT22;18221;38.704;0.152;2023-05-09T02:27:17;18.80;99.90
10175;DHT22;18221;38.704;0.152;2023-05-09T02:29:49;18.70;99.90
10175;DHT22;18221;38.704;0.152;2023-05-09T02:32:25;18.70;99.90
10175;DHT22;18221;38.704;0.152;2023-05-09T02:34:57;18.70;99.90
10175;DHT22;18221;38.704;0.152;2023-05-09T02:37:27;18.60;99.90
10175;DHT22;18221;38.704;0.152;2023-05-09T02:39:56;18.60;99.90
10175;DHT22;18221;38.704;0.152;2023-05-09T02:42:26;18.50;99.90
10175;DHT22;18221;38.704;0.152;2023-05-09T02:44:57;18.50;99.90
10175;DHT22;18221;38.704;0.152;2023-05-09T02:47:25;18.50;99.90
10175;DHT22;18221;38.704;0.152;2023-05-09T02:49:54;18.50;99.90
10175;DHT22;18221;38.704;0.152;2023-05-09T02:52:23;18.60;99.90
10175;DHT22;18221;38.704;0.152;2023-05-09T02:54:51;18.50;99.90
10175;DHT22;18221;38.704;0.152;2023-05-09T02:57:20;18.90;99.90
10175;DHT22;18221;38.704;0.152;2023-05-09T02:59:48;18.40;99.90
10175;DHT22;18221;38.704;0.152;2023-05-09T03:02:19;18.40;99.90
10175;DHT22;18221;38.704;0.152;2023-05-09T03:04:48;18.30;99.90
10175;DHT22;18221;38.704;0.152;2023-05-09T03:07:17;18.40;99.90
10175;DHT22;18221;38.704;0.152;2023-05-09T03:09:46;18.40;99.90
10175;DHT22;18221;38.704;0.152;2023-05-09T03:12:15;18.40;99.90
10175;DHT22;18221;38.704;0.152;2023-05-09T03:14:43;18.40;99.90
10175;DHT22;18221;38.704;0.152;2023-05-09T03:17:12;18.40;99.90
10175;DHT22;18221;38.704;0.152;2023-05-09T03:19:44;18.40;99.90
10175;DHT22;18221;38.704;0.152;2023-05-09T03:22:12;18.40;99.90
10175;DHT22;18221;38.704;0.152;2023-05-09T03:24:41;18.40;99.90
10175;DHT22;18221;38.704;0.152;2023-05-09T03:27:10;18.30;99.90
10175;DHT22;18221;38.704;0.152;2023-05-09T03:29:39;18.30;99.90
10175;DHT22;18221;38.704;0.152;2023-05-09T03:32:08;18.30;99.90
10175;DHT22;18221;38.704;0.152;2023-05-09T03:34:37;18.30;99.90
10175;DHT22;18221;38.704;0.152;2023-05-09T03:37:07;18.30;99.90
10175;DHT22;18221;38.704;0.152;2023-05-09T03:39:36;18.30;99.90
10175;DHT22;18221;38.704;0.152;2023-05-09T03:42:05;18.30;99.90
10175;DHT22;18221;38.704;0.152;2023-05-09T03:44:33;18.30;99.90
10175;DHT22;18221;38.704;0.152;2023-05-09T03:47:02;18.30;99.90
10175;DHT22;18221;38.704;0.152;2023-05-09T03:49:31;18.30;99.90
10175;DHT22;18221;38.704;0.152;2023-05-09T03:51:59;18.30;99.90
10175;DHT22;18221;38.704;0.152;2023-05-09T03:54:29;18.20;99.90
10175;DHT22;18221;38.704;0.152;2023-05-09T03:56:58;18.20;99.90
10175;DHT22;18221;38.704;0.152;2023-05-09T03:59:29;18.20;99.90
10175;DHT22;18221;38.704;0.152;2023-05-09T04:01:58;18.20;99.90
10175;DHT22;18221;38.704;0.152;2023-05-09T04:04:27;18.20;99.90
10175;DHT22;18221;38.704;0.152;2023-05-09T04:06:55;18.20;99.90
10175;DHT22;18221;38.704;0.152;2023-05-09T04:09:24;18.20;99.90
10175;DHT22;18221;38.704;0.152;2023-05-09T04:11:54;18.20;99.90
10175;DHT22;18221;38.704;0.152;2023-05-09T04:14:23;18.10;99.90
10175;DHT22;18221;38.704;0.152;2023-05-09T04:16:51;18.10;99.90
10175;DHT22;18221;38.704;0.152;2023-05-09T04:19:20;18.10;99.90
10175;DHT22;18221;38.704;0.152;2023-05-09T04:21:48;18.10;99.90
10175;DHT22;18221;38.704;0.152;2023-05-09T04:24:17;18.00;99.90
10175;DHT22;18221;38.704;0.152;2023-05-09T04:26:46;18.00;99.90
10175;DHT22;18221;38.704;0.152;2023-05-09T04:29:18;18.00;99.90
10175;DHT22;18221;38.704;0.152;2023-05-09T04:31:46;18.00;99.90
10175;DHT22;18221;38.704;0.152;2023-05-09T04:34:15;18.00;99.90
10175;DHT22;18221;38.704;0.152;2023-05-09T04:36:43;18.00;99.90
10175;DHT22;18221;38.704;0.152;2023-05-09T04:39:12;18.00;99.90
10175;DHT22;18221;38.704;0.152;2023-05-09T04:41:40;18.00;99.90
10175;DHT22;18221;38.704;0.152;2023-05-09T04:44:12;18.00;99.90
10175;DHT22;18221;38.704;0.152;2023-05-09T04:46:42;18.00;99.90
10175;DHT22;18221;38.704;0.152;2023-05-09T04:49:11;18.00;99.90
10175;DHT22;18221;38.704;0.152;2023-05-09T04:51:39;18.00;99.90
10175;DHT22;18221;38.704;0.152;2023-05-09T04:54:08;18.00;99.90
10175;DHT22;18221;38.704;0.152;2023-05-09T04:56:36;18.00;99.90
10175;DHT22;18221;38.704;0.152;2023-05-09T04:59:05;18.00;99.90
10175;DHT22;18221;38.704;0.152;2023-05-09T05:01:35;18.00;99.90
10175;DHT22;18221;38.704;0.152;2023-05-09T05:04:05;18.10;99.90
10175;DHT22;18221;38.704;0.152;2023-05-09T05:06:34;17.20;99.90
10175;DHT22;18221;38.704;0.152;2023-05-09T05:09:03;18.10;99.90
10175;DHT22;18221;38.704;0.152;2023-05-09T05:11:31;18.20;99.90
10175;DHT22;18221;38.704;0.152;2023-05-09T05:14:00;18.20;99.90
10175;DHT22;18221;38.704;0.152;2023-05-09T05:16:29;18.20;99.90
10175;DHT22;18221;38.704;0.152;2023-05-09T05:18:58;18.30;99.90
10175;DHT22;18221;38.704;0.152;2023-05-09T05:21:28;18.20;99.90
10175;DHT22;18221;38.704;0.152;2023-05-09T05:23:58;18.20;99.90
10175;DHT22;18221;38.704;0.152;2023-05-09T05:26:26;18.20;99.90
10175;DHT22;18221;38.704;0.152;2023-05-09T05:28:55;18.20;99.90
10175;DHT22;18221;38.704;0.152;2023-05-09T05:31:24;18.20;99.90
10175;DHT22;18221;38.704;0.152;2023-05-09T05:33:52;18.20;99.90
10175;DHT22;18221;38.704;0.152;2023-05-09T05:36:21;18.20;99.90
10175;DHT22;18221;38.704;0.152;2023-05-09T05:38:51;18.20;99.90
10175;DHT22;18221;38.704;0.152;2023-05-09T05:41:20;18.20;99.90
10175;DHT22;18221;38.704;0.152;2023-05-09T05:43:49;18.20;99.90
10175;DHT22;18221;38.704;0.152;2023-05-09T05:46:17;18.20;99.90
10175;DHT22;18221;38.704;0.152;2023-05-09T05:48:46;18.30;99.90
10175;DHT22;18221;38.704;0.152;2023-05-09T05:51:15;18.30;99.90
10175;DHT22;18221;38.704;0.152;2023-05-09T05:53:44;18.30;99.90
10175;DHT22;18221;38.704;0.152;2023-05-09T05:56:14;18.30;99.90
10175;DHT22;18221;38.704;0.152;2023-05-09T05:58:43;18.40;99.90
10175;DHT22;18221;38.704;0.152;2023-05-09T06:01:12;18.40;99.90
10175;DHT22;18221;38.704;0.152;2023-05-09T06:03:40;18.40;99.90
10175;DHT22;18221;38.704;0.152;2023-05-09T06:06:09;18.50;99.90
10175;DHT22;18221;38.704;0.152;2023-05-09T06:08:38;18.40;99.90
10175;DHT22;18221;38.704;0.152;2023-05-09T06:11:11;18.50;99.90
10175;DHT22;18221;38.704;0.152;2023-05-09T06:13:46;18.50;99.90
10175;DHT22;18221;38.704;0.152;2023-05-09T06:16:15;18.60;99.90
10175;DHT22;18221;38.704;0.152;2023-05-09T06:18:44;18.50;99.90
10175;DHT22;18221;38.704;0.152;2023-05-09T06:21:12;18.60;99.90
10175;DHT22;18221;38.704;0.152;2023-05-09T06:23:41;18.60;99.90
10175;DHT22;18221;38.704;0.152;2023-05-09T06:26:09;18.60;99.90
10175;DHT22;18221;38.704;0.152;2023-05-09T06:28:41;18.60;99.90
10175;DHT22;18221;38.704;0.152;2023-05-09T06:31:09;18.70;99.90
10175;DHT22;18221;38.704;0.152;2023-05-09T06:33:38;18.70;99.90
10175;DHT22;18221;38.704;0.152;2023-05-09T06:36:07;17.90;99.90
10175;DHT22;18221;38.704;0.152;2023-05-09T06:38:37;18.80;99.90
10175;DHT22;18221;38.704;0.152;2023-05-09T06:41:05;18.90;99.90
10175;DHT22;18221;38.704;0.152;2023-05-09T06:43:34;18.90;99.90
10175;DHT22;18221;38.704;0.152;2023-05-09T06:46:04;18.90;99.90
10175;DHT22;18221;38.704;0.152;2023-05-09T06:48:33;18.90;99.90
10175;DHT22;18221;38.704;0.152;2023-05-09T06:51:02;18.90;99.90
10175;DHT22;18221;38.704;0.152;2023-05-09T06:53:30;18.90;99.90
10175;DHT22;18221;38.704;0.152;2023-05-09T06:55:59;18.90;99.90
10175;DHT22;18221;38.704;0.152;2023-05-09T06:58:28;18.90;99.90
10175;DHT22;18221;38.704;0.152;2023-05-09T07:00:57;18.90;99.90
10175;DHT22;18221;38.704;0.152;2023-05-09T07:03:27;18.90;99.90
10175;DHT22;18221;38.704;0.152;2023-05-09T07:05:55;18.80;99.90
10175;DHT22;18221;38.704;0.152;2023-05-09T07:08:25;18.90;99.90
10175;DHT22;18221;38.704;0.152;2023-05-09T07:10:53;18.90;99.90
10175;DHT22;18221;38.704;0.152;2023-05-09T07:13:22;18.90;99.90
10175;DHT22;18221;38.704;0.152;2023-05-09T07:15:51;18.90;99.90
10175;DHT22;18221;38.704;0.152;2023-05-09T07:18:19;19.00;99.90
10175;DHT22;18221;38.704;0.152;2023-05-09T07:20:50;19.00;99.90
10175;DHT22;18221;38.704;0.152;2023-05-09T07:23:18;19.00;99.90
10175;DHT22;18221;38.704;0.152;2023-05-09T07:25:47;19.00;99.90
10175;DHT22;18221;38.704;0.152;2023-05-09T07:28:16;19.00;99.90
10175;DHT22;18221;38.704;0.152;2023-05-09T07:30:44;19.00;99.90
10175;DHT22;18221;38.704;0.152;2023-05-09T07:33:13;18.60;99.90
10175;DHT22;18221;38.704;0.152;2023-05-09T07:35:42;19.20;99.90
10175;DHT22;18221;38.704;0.152;2023-05-09T07:38:12;19.20;99.90
10175;DHT22;18221;38.704;0.152;2023-05-09T07:40:41;19.30;99.90
10175;DHT22;18221;38.704;0.152;2023-05-09T07:43:10;19.30;99.90
10175;DHT22;18221;38.704;0.152;2023-05-09T07:45:38;19.30;99.90
10175;DHT22;18221;38.704;0.152;2023-05-09T07:48:07;19.30;99.90
10175;DHT22;18221;38.704;0.152;2023-05-09T07:50:36;19.40;99.90
10175;DHT22;18221;38.704;0.152;2023-05-09T07:53:05;19.40;99.90
10175;DHT22;18221;38.704;0.152;2023-05-09T07:55:35;19.40;99.90
10175;DHT22;18221;38.704;0.152;2023-05-09T07:58:04;19.50;99.90
10175;DHT22;18221;38.704;0.152;2023-05-09T08:00:33;19.60;99.90
10175;DHT22;18221;38.704;0.152;2023-05-09T08:03:02;19.70;99.90
10175;DHT22;18221;38.704;0.152;2023-05-09T08:05:30;19.80;99.90
10175;DHT22;18221;38.704;0.152;2023-05-09T08:07:59;19.80;99.90
10175;DHT22;18221;38.704;0.152;2023-05-09T08:10:34;19.80;99.90
10175;DHT22;18221;38.704;0.152;2023-05-09T08:13:03;19.80;99.90
10175;DHT22;18221;38.704;0.152;2023-05-09T08:15:31;19.70;99.90
10175;DHT22;18221;38.704;0.152;2023-05-09T08:18:00;19.80;99.90
10175;DHT22;18221;38.704;0.152;2023-05-09T08:20:29;19.80;99.90
10175;DHT22;18221;38.704;0.152;2023-05-09T08:22:59;20.00;99.90
10175;DHT22;18221;38.704;0.152;2023-05-09T08:25:28;20.00;99.90
10175;DHT22;18221;38.704;0.152;2023-05-09T08:27:58;20.00;99.90
10175;DHT22;18221;38.704;0.152;2023-05-09T08:30:27;20.10;99.90
10175;DHT22;18221;38.704;0.152;2023-05-09T08:32:55;20.10;99.90
10175;DHT22;18221;38.704;0.152;2023-05-09T08:35:24;20.00;99.90
10175;DHT22;18221;38.704;0.152;2023-05-09T08:37:53;20.10;99.90
10175;DHT22;18221;38.704;0.152;2023-05-09T08:40:22;20.10;99.90
10175;DHT22;18221;38.704;0.152;2023-05-09T08:42:50;20.00;99.90
10175;DHT22;18221;38.704;0.152;2023-05-09T08:45:24;20.00;99.90
10175;DHT22;18221;38.704;0.152;2023-05-09T08:47:56;20.10;99.90
10175;DHT22;18221;38.704;0.152;2023-05-09T08:50:26;20.10;99.90
10175;DHT22;18221;38.704;0.152;2023-05-09T08:52:55;20.20;99.90
10175;DHT22;18221;38.704;0.152;2023-05-09T08:55:24;20.30;99.90
10175;DHT22;18221;38.704;0.152;2023-05-09T08:57:54;20.20;99.90
10175;DHT22;18221;38.704;0.152;2023-05-09T09:00:25;20.30;99.90
10175;DHT22;18221;38.704;0.152;2023-05-09T09:02:54;20.30;99.90
10175;DHT22;18221;38.704;0.152;2023-05-09T09:05:25;20.30;99.90
10175;DHT22;18221;38.704;0.152;2023-05-09T09:07:57;20.50;99.90
10175;DHT22;18221;38.704;0.152;2023-05-09T09:10:28;20.70;99.90
10175;DHT22;18221;38.704;0.152;2023-05-09T09:13:00;20.90;99.90
10175;DHT22;18221;38.704;0.152;2023-05-09T09:15:35;21.00;99.90
10175;DHT22;18221;38.704;0.152;2023-05-09T09:18:07;21.10;99.90
10175;DHT22;18221;38.704;0.152;2023-05-09T09:20:40;21.10;99.90
10175;DHT22;18221;38.704;0.152;2023-05-09T09:23:16;21.10;99.90
10175;DHT22;18221;38.704;0.152;2023-05-09T09:25:46;21.00;99.90
10175;DHT22;18221;38.704;0.152;2023-05-09T09:28:18;21.00;99.90
10175;DHT22;18221;38.704;0.152;2023-05-09T09:30:49;21.00;99.90
10175;DHT22;18221;38.704;0.152;2023-05-09T09:33:19;21.10;99.90
10175;DHT22;18221;38.704;0.152;2023-05-09T09:35:49;21.20;99.90
10175;DHT22;18221;38.704;0.152;2023-05-09T09:38:22;21.30;99.90
10175;DHT22;18221;38.704;0.152;2023-05-09T09:40:55;21.40;99.90
10175;DHT22;18221;38.704;0.152;2023-05-09T09:43:30;21.40;99.90
10175;DHT22;18221;38.704;0.152;2023-05-09T09:46:02;21.20;99.90
10175;DHT22;18221;38.704;0.152;2023-05-09T09:48:33;21.40;99.90
10175;DHT22;18221;38.704;0.152;2023-05-09T09:51:07;21.40;99.90
10175;DHT22;18221;38.704;0.152;2023-05-09T09:53:41;21.30;99.90
10175;DHT22;18221;38.704;0.152;2023-05-09T09:56:10;21.30;99.90
10175;DHT22;18221;38.704;0.152;2023-05-09T09:58:39;21.30;99.90
10175;DHT22;18221;38.704;0.152;2023-05-09T10:01:11;21.30;99.90
10175;DHT22;18221;38.704;0.152;2023-05-09T10:03:42;21.40;99.90
10175;DHT22;18221;38.704;0.152;2023-05-09T10:06:14;21.40;99.90
10175;DHT22;18221;38.704;0.152;2023-05-09T10:08:44;21.50;99.90
10175;DHT22;18221;38.704;0.152;2023-05-09T10:11:14;21.50;99.90
10175;DHT22;18221;38.704;0.152;2023-05-09T10:13:44;21.40;99.90
10175;DHT22;18221;38.704;0.152;2023-05-09T10:16:14;21.40;99.90
10175;DHT22;18221;38.704;0.152;2023-05-09T10:18:43;21.50;99.90
10175;DHT22;18221;38.704;0.152;2023-05-09T10:21:13;21.60;99.90
10175;DHT22;18221;38.704;0.152;2023-05-09T10:23:45;21.40;99.90
10175;DHT22;18221;38.704;0.152;2023-05-09T10:26:22;21.40;99.90
10175;DHT22;18221;38.704;0.152;2023-05-09T10:28:54;21.50;99.90
10175;DHT22;18221;38.704;0.152;2023-05-09T10:31:27;21.50;99.90
10175;DHT22;18221;38.704;0.152;2023-05-09T10:34:01;21.60;99.90
10175;DHT22;18221;38.704;0.152;2023-05-09T10:36:37;21.50;99.90
10175;DHT22;18221;38.704;0.152;2023-05-09T10:39:06;21.50;99.90
10175;DHT22;18221;38.704;0.152;2023-05-09T10:41:36;21.60;99.90
10175;DHT22;18221;38.704;0.152;2023-05-09T10:44:06;21.70;99.90
10175;DHT22;18221;38.704;0.152;2023-05-09T10:46:38;21.70;99.90
10175;DHT22;18221;38.704;0.152;2023-05-09T10:49:07;21.50;99.90
10175;DHT22;18221;38.704;0.152;2023-05-09T10:51:36;21.40;99.90
10175;DHT22;18221;38.704;0.152;2023-05-09T10:54:13;21.50;99.90
10175;DHT22;18221;38.704;0.152;2023-05-09T10:56:42;21.40;99.90
10175;DHT22;18221;38.704;0.152;2023-05-09T10:59:32;21.30;99.90
10175;DHT22;18221;38.704;0.152;2023-05-09T11:02:05;21.30;99.90
10175;DHT22;18221;38.704;0.152;2023-05-09T11:04:42;21.20;99.90
10175;DHT22;18221;38.704;0.152;2023-05-09T11:07:23;21.10;99.90
10175;DHT22;18221;38.704;0.152;2023-05-09T11:10:06;21.20;99.90
10175;DHT22;18221;38.704;0.152;2023-05-09T11:12:52;21.10;99.90
10175;DHT22;18221;38.704;0.152;2023-05-09T11:15:22;21.20;99.90
10175;DHT22;18221;38.704;0.152;2023-05-09T11:18:04;21.40;99.90
10175;DHT22;18221;38.704;0.152;2023-05-09T11:20:34;21.60;99.90
10175;DHT22;18221;38.704;0.152;2023-05-09T11:23:09;21.60;99.90
10175;DHT22;18221;38.704;0.152;2023-05-09T11:25:38;21.60;99.90
10175;DHT22;18221;38.704;0.152;2023-05-09T11:28:08;21.50;99.90
10175;DHT22;18221;38.704;0.152;2023-05-09T11:30:41;21.60;99.90
10175;DHT22;18221;38.704;0.152;2023-05-09T11:33:22;21.80;99.90
10175;DHT22;18221;38.704;0.152;2023-05-09T11:36:18;21.90;99.90
10175;DHT22;18221;38.704;0.152;2023-05-09T11:39:02;21.70;99.90
10175;DHT22;18221;38.704;0.152;2023-05-09T11:41:38;21.70;99.90
10175;DHT22;18221;38.704;0.152;2023-05-09T11:44:15;21.70;99.90
10175;DHT22;18221;38.704;0.152;2023-05-09T11:46:47;21.60;99.90
10175;DHT22;18221;38.704;0.152;2023-05-09T11:49:18;21.60;99.90
10175;DHT22;18221;38.704;0.152;2023-05-09T11:51:46;21.60;99.90
10175;DHT22;18221;38.704;0.152;2023-05-09T11:54:14;21.60;99.90
10175;DHT22;18221;38.704;0.152;2023-05-09T11:56:44;21.50;99.90
10175;DHT22;18221;38.704;0.152;2023-05-09T11:59:13;21.60;99.90
10175;DHT22;18221;38.704;0.152;2023-05-09T12:01:42;21.70;99.90
10175;DHT22;18221;38.704;0.152;2023-05-09T12:04:11;21.70;99.90
10175;DHT22;18221;38.704;0.152;2023-05-09T12:06:46;21.90;99.90
10175;DHT22;18221;38.704;0.152;2023-05-09T12:09:15;21.80;99.90
10175;DHT22;18221;38.704;0.152;2023-05-09T12:11:48;21.80;99.90
10175;DHT22;18221;38.704;0.152;2023-05-09T12:14:26;21.90;99.90
10175;DHT22;18221;38.704;0.152;2023-05-09T12:16:55;22.00;99.90
10175;DHT22;18221;38.704;0.152;2023-05-09T12:19:24;22.10;99.90
10175;DHT22;18221;38.704;0.152;2023-05-09T12:21:59;22.10;99.90
10175;DHT22;18221;38.704;0.152;2023-05-09T12:24:29;22.10;99.90
10175;DHT22;18221;38.704;0.152;2023-05-09T12:26:59;22.20;99.90
10175;DHT22;18221;38.704;0.152;2023-05-09T12:29:29;22.20;99.90
10175;DHT22;18221;38.704;0.152;2023-05-09T12:31:59;21.30;99.90
10175;DHT22;18221;38.704;0.152;2023-05-09T12:34:28;22.30;99.90
10175;DHT22;18221;38.704;0.152;2023-05-09T12:36:59;22.20;99.90
10175;DHT22;18221;38.704;0.152;2023-05-09T12:39:28;22.30;99.90
10175;DHT22;18221;38.704;0.152;2023-05-09T12:41:57;22.20;99.90
10175;DHT22;18221;38.704;0.152;2023-05-09T12:44:26;22.30;99.90
10175;DHT22;18221;38.704;0.152;2023-05-09T12:46:59;22.30;99.90
10175;DHT22;18221;38.704;0.152;2023-05-09T12:49:29;22.40;99.90
10175;DHT22;18221;38.704;0.152;2023-05-09T12:52:16;22.50;99.90
10175;DHT22;18221;38.704;0.152;2023-05-09T12:54:46;22.70;99.90
10175;DHT22;18221;38.704;0.152;2023-05-09T12:57:22;22.80;99.90
10175;DHT22;18221;38.704;0.152;2023-05-09T12:59:57;22.70;99.90
10175;DHT22;18221;38.704;0.152;2023-05-09T13:02:32;22.50;99.90
10175;DHT22;18221;38.704;0.152;2023-05-09T13:05:06;22.30;99.90
10175;DHT22;18221;38.704;0.152;2023-05-09T13:07:41;22.20;99.90
10175;DHT22;18221;38.704;0.152;2023-05-09T13:10:11;22.30;99.90
10175;DHT22;18221;38.704;0.152;2023-05-09T13:12:41;22.40;99.90
10175;DHT22;18221;38.704;0.152;2023-05-09T13:15:13;22.30;99.90
10175;DHT22;18221;38.704;0.152;2023-05-09T13:17:47;22.40;99.90
10175;DHT22;18221;38.704;0.152;2023-05-09T13:20:17;22.50;99.90
10175;DHT22;18221;38.704;0.152;2023-05-09T13:22:47;22.60;99.90
10175;DHT22;18221;38.704;0.152;2023-05-09T13:25:16;22.60;99.90
10175;DHT22;18221;38.704;0.152;2023-05-09T13:27:50;22.60;99.90
10175;DHT22;18221;38.704;0.152;2023-05-09T13:30:19;22.70;99.90
10175;DHT22;18221;38.704;0.152;2023-05-09T13:32:48;22.60;99.90
10175;DHT22;18221;38.704;0.152;2023-05-09T13:35:17;22.30;99.90
10175;DHT22;18221;38.704;0.152;2023-05-09T13:37:48;22.30;99.90
10175;DHT22;18221;38.704;0.152;2023-05-09T13:40:17;22.10;99.90
10175;DHT22;18221;38.704;0.152;2023-05-09T13:42:46;22.10;99.90
10175;DHT22;18221;38.704;0.152;2023-05-09T13:45:15;22.20;99.90
10175;DHT22;18221;38.704;0.152;2023-05-09T13:47:44;22.30;99.90
10175;DHT22;18221;38.704;0.152;2023-05-09T13:50:13;22.40;99.90
10175;DHT22;18221;38.704;0.152;2023-05-09T13:52:42;22.30;99.90
10175;DHT22;18221;38.704;0.152;2023-05-09T13:55:13;22.20;99.90
10175;DHT22;18221;38.704;0.152;2023-05-09T13:57:42;22.30;99.90
10175;DHT22;18221;38.704;0.152;2023-05-09T14:00:11;22.50;99.90
10175;DHT22;18221;38.704;0.152;2023-05-09T14:02:41;22.60;99.90
10175;DHT22;18221;38.704;0.152;2023-05-09T14:05:10;22.50;99.90
10175;DHT22;18221;38.704;0.152;2023-05-09T14:07:38;22.80;99.90
10175;DHT22;18221;38.704;0.152;2023-05-09T14:10:08;22.80;99.90
10175;DHT22;18221;38.704;0.152;2023-05-09T14:12:39;22.60;99.90
10175;DHT22;18221;38.704;0.152;2023-05-09T14:15:09;22.70;99.90
10175;DHT22;18221;38.704;0.152;2023-05-09T14:17:38;22.80;99.90
10175;DHT22;18221;38.704;0.152;2023-05-09T14:20:09;22.80;99.90
10175;DHT22;18221;38.704;0.152;2023-05-09T14:22:38;22.70;99.90
10175;DHT22;18221;38.704;0.152;2023-05-09T14:25:07;22.70;99.90
10175;DHT22;18221;38.704;0.152;2023-05-09T14:27:38;22.80;99.90
10175;DHT22;18221;38.704;0.152;2023-05-09T14:30:08;22.90;99.90
10175;DHT22;18221;38.704;0.152;2023-05-09T14:32:37;23.30;99.90
10175;DHT22;18221;38.704;0.152;2023-05-09T14:35:07;23.10;99.90
10175;DHT22;18221;38.704;0.152;2023-05-09T14:37:36;23.00;99.90
10175;DHT22;18221;38.704;0.152;2023-05-09T14:40:08;23.00;99.90
10175;DHT22;18221;38.704;0.152;2023-05-09T14:42:53;23.10;99.90
10175;DHT22;18221;38.704;0.152;2023-05-09T14:45:22;23.00;99.90
10175;DHT22;18221;38.704;0.152;2023-05-09T14:47:51;23.10;99.90
10175;DHT22;18221;38.704;0.152;2023-05-09T14:50:20;23.10;99.90
10175;DHT22;18221;38.704;0.152;2023-05-09T14:52:53;23.10;99.90
10175;DHT22;18221;38.704;0.152;2023-05-09T14:55:22;23.00;99.90
10175;DHT22;18221;38.704;0.152;2023-05-09T14:57:53;23.00;99.90
10175;DHT22;18221;38.704;0.152;2023-05-09T15:00:22;23.00;99.90
10175;DHT22;18221;38.704;0.152;2023-05-09T15:02:52;23.00;99.90
10175;DHT22;18221;38.704;0.152;2023-05-09T15:05:21;23.00;99.90
10175;DHT22;18221;38.704;0.152;2023-05-09T15:07:49;23.00;99.90
10175;DHT22;18221;38.704;0.152;2023-05-09T15:10:18;23.00;99.90
10175;DHT22;18221;38.704;0.152;2023-05-09T15:12:47;22.90;99.90
10175;DHT22;18221;38.704;0.152;2023-05-09T15:15:18;22.80;99.90
10175;DHT22;18221;38.704;0.152;2023-05-09T15:17:49;22.70;99.90
10175;DHT22;18221;38.704;0.152;2023-05-09T15:20:19;22.70;99.90
10175;DHT22;18221;38.704;0.152;2023-05-09T15:22:48;22.60;99.90
10175;DHT22;18221;38.704;0.152;2023-05-09T15:25:18;22.60;99.90
10175;DHT22;18221;38.704;0.152;2023-05-09T15:27:47;22.60;99.90
10175;DHT22;18221;38.704;0.152;2023-05-09T15:30:18;22.60;99.90
10175;DHT22;18221;38.704;0.152;2023-05-09T15:32:50;22.60;99.90
10175;DHT22;18221;38.704;0.152;2023-05-09T15:35:22;22.50;99.90
10175;DHT22;18221;38.704;0.152;2023-05-09T15:37:50;22.50;99.90
10175;DHT22;18221;38.704;0.152;2023-05-09T15:40:19;22.50;99.90
10175;DHT22;18221;38.704;0.152;2023-05-09T15:42:48;22.50;99.90
10175;DHT22;18221;38.704;0.152;2023-05-09T15:45:23;22.50;99.90
10175;DHT22;18221;38.704;0.152;2023-05-09T15:47:52;22.70;99.90
10175;DHT22;18221;38.704;0.152;2023-05-09T15:50:21;22.70;99.90
10175;DHT22;18221;38.704;0.152;2023-05-09T15:52:50;22.60;99.90
10175;DHT22;18221;38.704;0.152;2023-05-09T15:55:18;22.70;99.90